CFG2LV EDDF-LEPA
Flight info
| Callsign | CFG2LV |
|---|---|
| Flight time | 1h 43m |
| Altitude | 35000 |
| Route | ANEKI2L ANEKI Y163 HERBI Y164 MOPAN DCT LUTIX/N0447F370 DCT BENOT DCT NEMOS DCT GEVEA DCT INCUS DCT BALSI DCT RETNO DCT TUPOX DCT MTG DCT DIVKO DCT VATIR DCT PIVUS N852 VERSO L129 LUNIK |
| Aircraft | A320/M-SDE1FGHIJ1LORVWYZ/S |
Departure
| Time | 2026-04-18 05:50 |
|---|---|
| Airport | Frankfurt Main Airport (EDDF) |
Arrival
| Time | 2026-04-18 07:33 |
|---|---|
| Airport | Palma de Mallorca Airport (LEPA) |
| Time | Latitude | Longitude | Altitude | Speed | Heading |
|---|---|---|---|---|---|
| 2026-04-18 05:13 | 50.04883 | 8.57153 | 363 ft | 0 kts | 161° |
| 2026-04-18 05:42 | 50.04876 | 8.57152 | 356 ft | 2 kts | 191° |
| 2026-04-18 05:43 | 50.04868 | 8.57124 | 362 ft | 4 kts | 253° |
| 2026-04-18 05:43 | 50.04846 | 8.57071 | 356 ft | 8 kts | 213° |
| 2026-04-18 05:43 | 50.04780 | 8.57024 | 361 ft | 13 kts | 205° |
| 2026-04-18 05:43 | 50.04688 | 8.56959 | 358 ft | 16 kts | 205° |
| 2026-04-18 05:44 | 50.04582 | 8.56902 | 357 ft | 16 kts | 193° |
| 2026-04-18 05:44 | 50.04495 | 8.56870 | 359 ft | 12 kts | 193° |
| 2026-04-18 05:44 | 50.04441 | 8.56784 | 363 ft | 14 kts | 249° |
| 2026-04-18 05:44 | 50.04399 | 8.56609 | 361 ft | 19 kts | 249° |
| 2026-04-18 05:45 | 50.04350 | 8.56403 | 361 ft | 21 kts | 249° |
| 2026-04-18 05:45 | 50.04297 | 8.56179 | 361 ft | 23 kts | 249° |
| 2026-04-18 05:45 | 50.04239 | 8.55937 | 358 ft | 25 kts | 250° |
| 2026-04-18 05:45 | 50.04177 | 8.55677 | 358 ft | 25 kts | 249° |
| 2026-04-18 05:46 | 50.04119 | 8.55437 | 355 ft | 23 kts | 249° |
| 2026-04-18 05:46 | 50.04066 | 8.55213 | 359 ft | 21 kts | 249° |
| 2026-04-18 05:46 | 50.04015 | 8.55002 | 353 ft | 21 kts | 250° |
| 2026-04-18 05:46 | 50.03961 | 8.54776 | 353 ft | 23 kts | 249° |
| 2026-04-18 05:47 | 50.03909 | 8.54560 | 353 ft | 19 kts | 250° |
| 2026-04-18 05:47 | 50.03869 | 8.54396 | 348 ft | 16 kts | 246° |
| 2026-04-18 05:47 | 50.03806 | 8.54248 | 352 ft | 17 kts | 242° |
| 2026-04-18 05:47 | 50.03763 | 8.54068 | 352 ft | 19 kts | 249° |
| 2026-04-18 05:48 | 50.03715 | 8.53868 | 348 ft | 21 kts | 250° |
| 2026-04-18 05:48 | 50.03662 | 8.53646 | 350 ft | 23 kts | 249° |
| 2026-04-18 05:48 | 50.03601 | 8.53405 | 337 ft | 25 kts | 249° |
| 2026-04-18 05:48 | 50.03538 | 8.53143 | 338 ft | 27 kts | 250° |
| 2026-04-18 05:49 | 50.03478 | 8.52896 | 334 ft | 19 kts | 247° |
| 2026-04-18 05:49 | 50.03428 | 8.52708 | 336 ft | 19 kts | 250° |
| 2026-04-18 05:49 | 50.03336 | 8.52594 | 335 ft | 18 kts | 182° |
| 2026-04-18 05:49 | 50.03084 | 8.52597 | 335 ft | 68 kts | 179° |
| 2026-04-18 05:50 | 50.02387 | 8.52604 | 335 ft | 130 kts | 180° |
| 2026-04-18 05:50 | 50.01329 | 8.52615 | 385 ft | 171 kts | 179° |
| 2026-04-18 05:50 | 50.00103 | 8.52624 | 948 ft | 178 kts | 179° |
| 2026-04-18 05:50 | 49.98836 | 8.52657 | 1559 ft | 186 kts | 177° |
| 2026-04-18 05:51 | 49.97493 | 8.52739 | 2015 ft | 200 kts | 177° |
| 2026-04-18 05:51 | 49.96065 | 8.52846 | 2489 ft | 213 kts | 176° |
| 2026-04-18 05:51 | 49.94504 | 8.52977 | 2834 ft | 238 kts | 177° |
| 2026-04-18 05:51 | 49.92778 | 8.53123 | 3329 ft | 257 kts | 176° |
| 2026-04-18 05:52 | 49.90971 | 8.53266 | 4155 ft | 262 kts | 177° |
| 2026-04-18 05:52 | 49.89131 | 8.53388 | 5045 ft | 266 kts | 178° |
| 2026-04-18 05:52 | 49.87901 | 8.53459 | 5637 ft | 268 kts | 178° |
| 2026-04-18 05:52 | 49.86029 | 8.53578 | 6536 ft | 270 kts | 178° |
| 2026-04-18 05:53 | 49.84140 | 8.53714 | 7374 ft | 275 kts | 178° |
| 2026-04-18 05:53 | 49.82211 | 8.53857 | 8129 ft | 281 kts | 178° |
| 2026-04-18 05:53 | 49.80241 | 8.54000 | 8931 ft | 285 kts | 178° |
| 2026-04-18 05:53 | 49.78247 | 8.54125 | 9732 ft | 288 kts | 181° |
| 2026-04-18 05:54 | 49.76238 | 8.53903 | 10521 ft | 291 kts | 186° |
| 2026-04-18 05:54 | 49.74156 | 8.53622 | 10874 ft | 312 kts | 186° |
| 2026-04-18 05:54 | 49.71916 | 8.53316 | 11117 ft | 334 kts | 186° |
| 2026-04-18 05:54 | 49.69558 | 8.52998 | 11652 ft | 343 kts | 186° |
| 2026-04-18 05:55 | 49.67161 | 8.52683 | 12349 ft | 347 kts | 186° |
| 2026-04-18 05:55 | 49.64745 | 8.52369 | 13057 ft | 351 kts | 186° |
| 2026-04-18 05:55 | 49.62300 | 8.52048 | 13741 ft | 354 kts | 186° |
| 2026-04-18 05:55 | 49.59835 | 8.51723 | 14403 ft | 358 kts | 186° |
| 2026-04-18 05:56 | 49.57342 | 8.51392 | 15048 ft | 361 kts | 187° |
| 2026-04-18 05:56 | 49.54831 | 8.51058 | 15677 ft | 364 kts | 187° |
| 2026-04-18 05:56 | 49.52295 | 8.50720 | 16291 ft | 368 kts | 187° |
| 2026-04-18 05:56 | 49.49734 | 8.50383 | 16895 ft | 371 kts | 187° |
| 2026-04-18 05:57 | 49.44543 | 8.49711 | 18052 ft | 377 kts | 187° |
| 2026-04-18 05:57 | 49.41970 | 8.48986 | 18612 ft | 377 kts | 200° |
| 2026-04-18 05:57 | 49.39490 | 8.47637 | 19173 ft | 380 kts | 202° |
| 2026-04-18 05:58 | 49.36995 | 8.46259 | 19723 ft | 382 kts | 202° |
| 2026-04-18 05:58 | 49.34481 | 8.44865 | 20250 ft | 386 kts | 202° |
| 2026-04-18 05:58 | 49.31981 | 8.43474 | 20759 ft | 389 kts | 202° |
| 2026-04-18 05:58 | 49.29413 | 8.42094 | 21272 ft | 393 kts | 201° |
| 2026-04-18 05:59 | 49.26816 | 8.40751 | 21779 ft | 396 kts | 200° |
| 2026-04-18 05:59 | 49.24186 | 8.39422 | 22262 ft | 399 kts | 200° |
| 2026-04-18 05:59 | 49.21536 | 8.38095 | 22727 ft | 402 kts | 200° |
| 2026-04-18 05:59 | 49.18863 | 8.36760 | 23169 ft | 406 kts | 200° |
| 2026-04-18 06:00 | 49.16174 | 8.35406 | 23605 ft | 409 kts | 200° |
| 2026-04-18 06:00 | 49.13464 | 8.34035 | 24027 ft | 411 kts | 201° |
| 2026-04-18 06:00 | 49.10737 | 8.32647 | 24442 ft | 414 kts | 201° |
| 2026-04-18 06:00 | 49.08001 | 8.31246 | 24831 ft | 417 kts | 201° |
| 2026-04-18 06:01 | 49.05239 | 8.29829 | 25222 ft | 419 kts | 201° |
| 2026-04-18 06:01 | 49.02467 | 8.28414 | 25596 ft | 422 kts | 201° |
| 2026-04-18 06:01 | 48.99675 | 8.27001 | 25967 ft | 424 kts | 200° |
| 2026-04-18 06:01 | 48.96869 | 8.25583 | 26324 ft | 426 kts | 201° |
| 2026-04-18 06:02 | 48.94050 | 8.24158 | 26666 ft | 428 kts | 201° |
| 2026-04-18 06:02 | 48.91216 | 8.22726 | 27004 ft | 430 kts | 200° |
| 2026-04-18 06:02 | 48.88366 | 8.21290 | 27339 ft | 432 kts | 200° |
| 2026-04-18 06:02 | 48.85502 | 8.19850 | 27654 ft | 435 kts | 200° |
| 2026-04-18 06:03 | 48.82625 | 8.18404 | 27963 ft | 437 kts | 200° |
| 2026-04-18 06:03 | 48.79774 | 8.16969 | 28263 ft | 439 kts | 200° |
| 2026-04-18 06:03 | 48.76869 | 8.15506 | 28553 ft | 441 kts | 200° |
| 2026-04-18 06:03 | 48.73954 | 8.14039 | 28831 ft | 443 kts | 200° |
| 2026-04-18 06:04 | 48.71023 | 8.12566 | 29105 ft | 445 kts | 200° |
| 2026-04-18 06:04 | 48.68079 | 8.11091 | 29369 ft | 446 kts | 200° |
| 2026-04-18 06:04 | 48.65125 | 8.09618 | 29619 ft | 448 kts | 200° |
| 2026-04-18 06:04 | 48.62159 | 8.08142 | 29865 ft | 450 kts | 200° |
| 2026-04-18 06:05 | 48.59178 | 8.06658 | 30114 ft | 452 kts | 200° |
| 2026-04-18 06:05 | 48.56189 | 8.05171 | 30340 ft | 453 kts | 200° |
| 2026-04-18 06:05 | 48.53190 | 8.03683 | 30562 ft | 455 kts | 200° |
| 2026-04-18 06:05 | 48.50176 | 8.02184 | 30798 ft | 456 kts | 200° |
| 2026-04-18 06:06 | 48.47169 | 8.00692 | 31102 ft | 455 kts | 200° |
| 2026-04-18 06:06 | 48.44167 | 7.99205 | 31413 ft | 454 kts | 200° |
| 2026-04-18 06:06 | 48.41167 | 7.97718 | 31730 ft | 453 kts | 200° |
| 2026-04-18 06:06 | 48.38183 | 7.96243 | 32047 ft | 451 kts | 200° |
| 2026-04-18 06:07 | 48.35206 | 7.94776 | 32341 ft | 450 kts | 200° |
| 2026-04-18 06:07 | 48.32235 | 7.93312 | 32614 ft | 449 kts | 200° |
| 2026-04-18 06:07 | 48.29268 | 7.91852 | 32888 ft | 448 kts | 200° |
| 2026-04-18 06:07 | 48.26304 | 7.90391 | 33169 ft | 448 kts | 200° |
| 2026-04-18 06:08 | 48.23350 | 7.88928 | 33430 ft | 447 kts | 200° |
| 2026-04-18 06:08 | 48.20399 | 7.87459 | 33691 ft | 446 kts | 200° |
| 2026-04-18 06:08 | 48.17458 | 7.85996 | 33962 ft | 446 kts | 200° |
| 2026-04-18 06:08 | 48.14514 | 7.84537 | 34230 ft | 445 kts | 200° |
| 2026-04-18 06:09 | 48.11575 | 7.83085 | 34495 ft | 444 kts | 200° |
| 2026-04-18 06:09 | 48.08638 | 7.81643 | 34741 ft | 444 kts | 200° |
| 2026-04-18 06:09 | 48.05702 | 7.80201 | 34972 ft | 444 kts | 201° |
| 2026-04-18 06:09 | 48.02764 | 7.78756 | 35160 ft | 445 kts | 201° |
| 2026-04-18 06:10 | 47.99834 | 7.77312 | 35211 ft | 444 kts | 201° |
| 2026-04-18 06:10 | 47.94010 | 7.74446 | 35211 ft | 443 kts | 201° |
| 2026-04-18 06:11 | 47.88147 | 7.71577 | 35211 ft | 443 kts | 200° |
| 2026-04-18 06:11 | 47.82279 | 7.68719 | 35210 ft | 444 kts | 200° |
| 2026-04-18 06:12 | 47.76418 | 7.65858 | 35220 ft | 444 kts | 200° |
| 2026-04-18 06:12 | 47.70545 | 7.62997 | 35219 ft | 444 kts | 200° |
| 2026-04-18 06:13 | 47.64682 | 7.60155 | 35228 ft | 443 kts | 201° |
| 2026-04-18 06:13 | 47.58830 | 7.57337 | 35234 ft | 441 kts | 201° |
| 2026-04-18 06:14 | 47.52990 | 7.54530 | 35232 ft | 441 kts | 201° |
| 2026-04-18 06:14 | 47.47165 | 7.51717 | 35225 ft | 440 kts | 201° |
| 2026-04-18 06:15 | 47.41340 | 7.48908 | 35221 ft | 440 kts | 201° |
| 2026-04-18 06:15 | 47.35501 | 7.46109 | 35439 ft | 442 kts | 201° |
| 2026-04-18 06:15 | 47.32578 | 7.44711 | 35647 ft | 442 kts | 201° |
| 2026-04-18 06:16 | 47.29649 | 7.43311 | 35840 ft | 443 kts | 201° |
| 2026-04-18 06:16 | 47.26717 | 7.41916 | 36032 ft | 443 kts | 201° |
| 2026-04-18 06:16 | 47.23785 | 7.40524 | 36223 ft | 443 kts | 201° |
| 2026-04-18 06:16 | 47.20860 | 7.39106 | 36390 ft | 442 kts | 204° |
| 2026-04-18 06:17 | 47.18097 | 7.37183 | 36540 ft | 439 kts | 214° |
| 2026-04-18 06:17 | 47.15617 | 7.34609 | 36696 ft | 435 kts | 224° |
| 2026-04-18 06:17 | 47.13494 | 7.31494 | 36923 ft | 429 kts | 233° |
| 2026-04-18 06:17 | 47.11643 | 7.28086 | 37159 ft | 426 kts | 234° |
| 2026-04-18 06:18 | 47.09804 | 7.24686 | 37218 ft | 425 kts | 233° |
| 2026-04-18 06:18 | 47.06121 | 7.17930 | 37225 ft | 424 kts | 233° |
| 2026-04-18 06:19 | 47.02435 | 7.11180 | 37232 ft | 424 kts | 233° |
| 2026-04-18 06:19 | 46.98757 | 7.04446 | 37239 ft | 424 kts | 233° |
| 2026-04-18 06:20 | 46.95073 | 6.97710 | 37241 ft | 423 kts | 233° |
| 2026-04-18 06:20 | 46.91326 | 6.91059 | 37244 ft | 425 kts | 228° |
| 2026-04-18 06:21 | 46.86815 | 6.85436 | 37243 ft | 427 kts | 221° |
| 2026-04-18 06:21 | 46.82212 | 6.79956 | 37244 ft | 427 kts | 222° |
| 2026-04-18 06:22 | 46.77610 | 6.74465 | 37244 ft | 427 kts | 222° |
| 2026-04-18 06:22 | 46.73030 | 6.69025 | 37241 ft | 427 kts | 221° |
| 2026-04-18 06:23 | 46.68419 | 6.63572 | 37244 ft | 427 kts | 221° |
| 2026-04-18 06:23 | 46.63804 | 6.58128 | 37235 ft | 427 kts | 221° |
| 2026-04-18 06:24 | 46.59190 | 6.52687 | 37236 ft | 427 kts | 221° |
| 2026-04-18 06:24 | 46.54574 | 6.47257 | 37233 ft | 427 kts | 221° |
| 2026-04-18 06:25 | 46.49953 | 6.41843 | 37232 ft | 427 kts | 221° |
| 2026-04-18 06:25 | 46.45331 | 6.36433 | 37230 ft | 427 kts | 221° |
| 2026-04-18 06:26 | 46.40705 | 6.31032 | 37225 ft | 427 kts | 221° |
| 2026-04-18 06:26 | 46.36075 | 6.25641 | 37222 ft | 427 kts | 221° |
| 2026-04-18 06:27 | 46.31442 | 6.20257 | 37218 ft | 427 kts | 221° |
| 2026-04-18 06:27 | 46.26646 | 6.15167 | 37214 ft | 431 kts | 211° |
| 2026-04-18 06:28 | 46.20985 | 6.12236 | 37214 ft | 437 kts | 192° |
| 2026-04-18 06:28 | 46.14968 | 6.10887 | 37209 ft | 438 kts | 191° |
| 2026-04-18 06:29 | 46.08942 | 6.09552 | 37209 ft | 438 kts | 191° |
| 2026-04-18 06:29 | 46.02912 | 6.08224 | 37210 ft | 438 kts | 191° |
| 2026-04-18 06:30 | 45.96886 | 6.06892 | 37209 ft | 438 kts | 192° |
| 2026-04-18 06:30 | 45.90858 | 6.05564 | 37208 ft | 438 kts | 191° |
| 2026-04-18 06:31 | 45.84828 | 6.04242 | 37209 ft | 439 kts | 191° |
| 2026-04-18 06:31 | 45.78794 | 6.02912 | 37212 ft | 439 kts | 192° |
| 2026-04-18 06:32 | 45.72758 | 6.01576 | 37213 ft | 439 kts | 191° |
| 2026-04-18 06:32 | 45.66761 | 6.00256 | 37210 ft | 439 kts | 192° |
| 2026-04-18 06:33 | 45.60727 | 5.98924 | 37208 ft | 438 kts | 192° |
| 2026-04-18 06:33 | 45.54699 | 5.97597 | 37208 ft | 438 kts | 191° |
| 2026-04-18 06:34 | 45.48629 | 5.96272 | 37206 ft | 438 kts | 191° |
| 2026-04-18 06:34 | 45.42679 | 5.94703 | 37207 ft | 437 kts | 195° |
| 2026-04-18 06:35 | 45.36718 | 5.92736 | 37204 ft | 437 kts | 196° |
| 2026-04-18 06:35 | 45.30833 | 5.90780 | 37200 ft | 437 kts | 195° |
| 2026-04-18 06:36 | 45.24883 | 5.88909 | 37199 ft | 438 kts | 195° |
| 2026-04-18 06:36 | 45.18915 | 5.87076 | 37200 ft | 439 kts | 195° |
| 2026-04-18 06:37 | 45.12944 | 5.85247 | 37199 ft | 439 kts | 195° |
| 2026-04-18 06:37 | 45.06968 | 5.83401 | 37197 ft | 439 kts | 195° |
| 2026-04-18 06:38 | 45.00997 | 5.81562 | 37193 ft | 440 kts | 195° |
| 2026-04-18 06:38 | 44.95012 | 5.79712 | 37195 ft | 440 kts | 195° |
| 2026-04-18 06:39 | 44.89021 | 5.77869 | 37196 ft | 441 kts | 195° |
| 2026-04-18 06:39 | 44.83018 | 5.76031 | 37192 ft | 442 kts | 195° |
| 2026-04-18 06:40 | 44.77012 | 5.74192 | 37177 ft | 442 kts | 195° |
| 2026-04-18 06:40 | 44.70996 | 5.72350 | 37183 ft | 442 kts | 195° |
| 2026-04-18 06:41 | 44.65995 | 5.70827 | 37180 ft | 443 kts | 195° |
| 2026-04-18 06:41 | 44.59974 | 5.68995 | 37173 ft | 443 kts | 195° |
| 2026-04-18 06:42 | 44.53943 | 5.67168 | 37163 ft | 443 kts | 195° |
| 2026-04-18 06:42 | 44.47907 | 5.65341 | 37164 ft | 444 kts | 195° |
| 2026-04-18 06:43 | 44.42238 | 5.62264 | 37164 ft | 437 kts | 213° |
| 2026-04-18 06:43 | 44.36946 | 5.58073 | 37158 ft | 438 kts | 211° |
| 2026-04-18 06:44 | 44.31489 | 5.54241 | 37158 ft | 440 kts | 208° |
| 2026-04-18 06:44 | 44.25957 | 5.50573 | 37158 ft | 440 kts | 208° |
| 2026-04-18 06:45 | 44.20440 | 5.46853 | 37158 ft | 441 kts | 209° |
| 2026-04-18 06:45 | 44.14939 | 5.43063 | 37157 ft | 441 kts | 209° |
| 2026-04-18 06:46 | 44.09450 | 5.39282 | 37154 ft | 440 kts | 209° |
| 2026-04-18 06:46 | 44.03948 | 5.35516 | 37154 ft | 440 kts | 209° |
| 2026-04-18 06:47 | 43.98450 | 5.31760 | 37148 ft | 440 kts | 209° |
| 2026-04-18 06:47 | 43.92946 | 5.28012 | 37142 ft | 441 kts | 209° |
| 2026-04-18 06:48 | 43.87434 | 5.24262 | 37142 ft | 441 kts | 209° |
| 2026-04-18 06:48 | 43.81921 | 5.20521 | 37138 ft | 441 kts | 209° |
| 2026-04-18 06:49 | 43.76405 | 5.16786 | 37136 ft | 441 kts | 209° |
| 2026-04-18 06:49 | 43.70891 | 5.13062 | 37135 ft | 441 kts | 209° |
| 2026-04-18 06:50 | 43.65414 | 5.09371 | 37135 ft | 441 kts | 209° |
| 2026-04-18 06:50 | 43.59897 | 5.05668 | 37135 ft | 441 kts | 209° |
| 2026-04-18 06:51 | 43.54379 | 5.01968 | 37137 ft | 441 kts | 209° |
| 2026-04-18 06:51 | 43.48870 | 4.98263 | 37137 ft | 441 kts | 209° |
| 2026-04-18 06:52 | 43.43361 | 4.94570 | 37138 ft | 440 kts | 208° |
| 2026-04-18 06:52 | 43.37850 | 4.90895 | 37138 ft | 440 kts | 209° |
| 2026-04-18 06:53 | 43.32336 | 4.87229 | 37139 ft | 440 kts | 208° |
| 2026-04-18 06:53 | 43.26829 | 4.83554 | 37140 ft | 440 kts | 209° |
| 2026-04-18 06:54 | 43.21324 | 4.79899 | 37138 ft | 440 kts | 208° |
| 2026-04-18 06:54 | 43.15811 | 4.76259 | 37137 ft | 440 kts | 208° |
| 2026-04-18 06:55 | 43.10296 | 4.72624 | 37130 ft | 440 kts | 208° |
| 2026-04-18 06:55 | 43.04789 | 4.68977 | 37131 ft | 440 kts | 209° |
| 2026-04-18 06:56 | 42.99290 | 4.65312 | 37132 ft | 440 kts | 209° |
| 2026-04-18 06:56 | 42.93787 | 4.61646 | 37138 ft | 440 kts | 209° |
| 2026-04-18 06:57 | 42.88274 | 4.57992 | 37137 ft | 440 kts | 208° |
| 2026-04-18 06:57 | 42.80002 | 4.52534 | 37140 ft | 440 kts | 209° |
| 2026-04-18 06:58 | 42.74494 | 4.48897 | 37142 ft | 440 kts | 209° |
| 2026-04-18 06:58 | 42.68983 | 4.45266 | 37149 ft | 440 kts | 209° |
| 2026-04-18 06:59 | 42.63473 | 4.41649 | 37154 ft | 440 kts | 209° |
| 2026-04-18 06:59 | 42.57964 | 4.38040 | 37152 ft | 440 kts | 209° |
| 2026-04-18 07:00 | 42.52493 | 4.34460 | 37156 ft | 439 kts | 209° |
| 2026-04-18 07:00 | 42.46987 | 4.30863 | 37157 ft | 439 kts | 209° |
| 2026-04-18 07:01 | 42.41478 | 4.27279 | 37158 ft | 439 kts | 209° |
| 2026-04-18 07:01 | 42.35966 | 4.23699 | 37158 ft | 440 kts | 209° |
| 2026-04-18 07:02 | 42.30451 | 4.20122 | 37158 ft | 439 kts | 209° |
| 2026-04-18 07:02 | 42.24945 | 4.16542 | 37158 ft | 439 kts | 209° |
| 2026-04-18 07:03 | 42.19437 | 4.12974 | 37159 ft | 439 kts | 208° |
| 2026-04-18 07:03 | 42.13966 | 4.09335 | 37162 ft | 438 kts | 211° |
| 2026-04-18 07:04 | 42.08397 | 4.06007 | 37158 ft | 442 kts | 200° |
| 2026-04-18 07:04 | 42.02521 | 4.03555 | 37158 ft | 442 kts | 200° |
| 2026-04-18 07:05 | 41.96638 | 4.01129 | 37162 ft | 442 kts | 200° |
| 2026-04-18 07:05 | 41.90756 | 3.98694 | 37164 ft | 443 kts | 200° |
| 2026-04-18 07:06 | 41.84877 | 3.96250 | 37161 ft | 442 kts | 200° |
| 2026-04-18 07:06 | 41.78993 | 3.93819 | 37165 ft | 442 kts | 200° |
| 2026-04-18 07:07 | 41.73114 | 3.91388 | 37171 ft | 442 kts | 200° |
| 2026-04-18 07:07 | 41.67235 | 3.88971 | 37172 ft | 442 kts | 200° |
| 2026-04-18 07:08 | 41.61350 | 3.86552 | 37167 ft | 442 kts | 200° |
| 2026-04-18 07:08 | 41.55464 | 3.84135 | 37126 ft | 443 kts | 200° |
| 2026-04-18 07:09 | 41.52519 | 3.82932 | 36720 ft | 442 kts | 200° |
| 2026-04-18 07:09 | 41.49618 | 3.81749 | 36138 ft | 441 kts | 200° |
| 2026-04-18 07:09 | 41.46671 | 3.80547 | 35641 ft | 444 kts | 200° |
| 2026-04-18 07:09 | 41.43699 | 3.79333 | 35137 ft | 449 kts | 200° |
| 2026-04-18 07:10 | 41.40702 | 3.78105 | 34641 ft | 453 kts | 200° |
| 2026-04-18 07:10 | 41.37680 | 3.76865 | 34140 ft | 455 kts | 200° |
| 2026-04-18 07:10 | 41.34647 | 3.75624 | 33641 ft | 457 kts | 200° |
| 2026-04-18 07:10 | 41.31608 | 3.74385 | 33141 ft | 458 kts | 200° |
| 2026-04-18 07:11 | 41.28558 | 3.73145 | 32641 ft | 459 kts | 200° |
| 2026-04-18 07:11 | 41.25508 | 3.71909 | 32139 ft | 457 kts | 200° |
| 2026-04-18 07:11 | 41.22475 | 3.70684 | 31638 ft | 454 kts | 200° |
| 2026-04-18 07:11 | 41.19468 | 3.69471 | 31135 ft | 450 kts | 200° |
| 2026-04-18 07:12 | 41.16486 | 3.68268 | 30637 ft | 446 kts | 200° |
| 2026-04-18 07:12 | 41.13526 | 3.67071 | 30137 ft | 442 kts | 200° |
| 2026-04-18 07:12 | 41.10596 | 3.65884 | 29636 ft | 439 kts | 199° |
| 2026-04-18 07:12 | 41.07682 | 3.64709 | 29134 ft | 436 kts | 199° |
| 2026-04-18 07:13 | 41.04793 | 3.63543 | 28638 ft | 433 kts | 199° |
| 2026-04-18 07:13 | 41.01921 | 3.62382 | 28133 ft | 431 kts | 199° |
| 2026-04-18 07:13 | 40.99059 | 3.61227 | 27632 ft | 429 kts | 199° |
| 2026-04-18 07:13 | 40.96213 | 3.60083 | 27132 ft | 426 kts | 199° |
| 2026-04-18 07:14 | 40.93383 | 3.58946 | 26631 ft | 424 kts | 199° |
| 2026-04-18 07:14 | 40.90563 | 3.57815 | 26129 ft | 422 kts | 199° |
| 2026-04-18 07:14 | 40.87757 | 3.56691 | 25623 ft | 420 kts | 199° |
| 2026-04-18 07:14 | 40.84964 | 3.55570 | 25131 ft | 418 kts | 199° |
| 2026-04-18 07:15 | 40.82188 | 3.54455 | 24623 ft | 416 kts | 199° |
| 2026-04-18 07:15 | 40.79425 | 3.53347 | 24121 ft | 414 kts | 199° |
| 2026-04-18 07:15 | 40.76673 | 3.52246 | 23622 ft | 412 kts | 199° |
| 2026-04-18 07:15 | 40.73935 | 3.51153 | 23125 ft | 410 kts | 198° |
| 2026-04-18 07:16 | 40.71212 | 3.50069 | 22622 ft | 408 kts | 198° |
| 2026-04-18 07:16 | 40.68505 | 3.48991 | 22120 ft | 405 kts | 198° |
| 2026-04-18 07:16 | 40.65812 | 3.47919 | 21631 ft | 403 kts | 198° |
| 2026-04-18 07:16 | 40.64073 | 3.47227 | 21298 ft | 402 kts | 198° |
| 2026-04-18 07:17 | 40.62202 | 3.46483 | 20946 ft | 400 kts | 198° |
| 2026-04-18 07:17 | 40.59581 | 3.45443 | 20449 ft | 398 kts | 198° |
| 2026-04-18 07:17 | 40.56906 | 3.44381 | 19943 ft | 395 kts | 198° |
| 2026-04-18 07:17 | 40.55184 | 3.43697 | 19618 ft | 394 kts | 198° |
| 2026-04-18 07:18 | 40.52476 | 3.42623 | 19096 ft | 391 kts | 198° |
| 2026-04-18 07:18 | 40.49912 | 3.41610 | 18601 ft | 389 kts | 198° |
| 2026-04-18 07:18 | 40.48184 | 3.40926 | 18264 ft | 388 kts | 198° |
| 2026-04-18 07:18 | 40.45651 | 3.39956 | 17781 ft | 387 kts | 194° |
| 2026-04-18 07:19 | 40.42997 | 3.39428 | 17280 ft | 386 kts | 184° |
| 2026-04-18 07:19 | 40.40318 | 3.39446 | 16780 ft | 384 kts | 177° |
| 2026-04-18 07:19 | 40.37655 | 3.39610 | 16280 ft | 383 kts | 177° |
| 2026-04-18 07:19 | 40.35001 | 3.39765 | 15779 ft | 381 kts | 178° |
| 2026-04-18 07:20 | 40.32354 | 3.39913 | 15308 ft | 379 kts | 177° |
| 2026-04-18 07:20 | 40.29747 | 3.40059 | 15147 ft | 371 kts | 177° |
| 2026-04-18 07:20 | 40.27179 | 3.40206 | 15173 ft | 369 kts | 177° |
| 2026-04-18 07:20 | 40.24614 | 3.40351 | 15010 ft | 370 kts | 177° |
| 2026-04-18 07:21 | 40.22042 | 3.40496 | 14537 ft | 368 kts | 177° |
| 2026-04-18 07:21 | 40.19494 | 3.40631 | 14138 ft | 364 kts | 179° |
| 2026-04-18 07:21 | 40.17002 | 3.40260 | 13737 ft | 360 kts | 197° |
| 2026-04-18 07:21 | 40.14721 | 3.38980 | 13339 ft | 356 kts | 208° |
| 2026-04-18 07:22 | 40.12539 | 3.37485 | 12964 ft | 353 kts | 209° |
| 2026-04-18 07:22 | 40.10369 | 3.35980 | 12584 ft | 352 kts | 209° |
| 2026-04-18 07:22 | 40.08218 | 3.34481 | 12209 ft | 350 kts | 209° |
| 2026-04-18 07:22 | 40.06077 | 3.32995 | 11855 ft | 348 kts | 209° |
| 2026-04-18 07:23 | 40.03945 | 3.31516 | 11485 ft | 346 kts | 209° |
| 2026-04-18 07:23 | 40.01826 | 3.30047 | 11119 ft | 344 kts | 209° |
| 2026-04-18 07:23 | 39.99716 | 3.28585 | 10740 ft | 342 kts | 209° |
| 2026-04-18 07:23 | 39.97614 | 3.27135 | 10359 ft | 341 kts | 209° |
| 2026-04-18 07:24 | 39.95530 | 3.25698 | 9992 ft | 337 kts | 209° |
| 2026-04-18 07:24 | 39.93481 | 3.24287 | 9665 ft | 330 kts | 209° |
| 2026-04-18 07:24 | 39.91472 | 3.22900 | 9339 ft | 324 kts | 209° |
| 2026-04-18 07:24 | 39.89497 | 3.21538 | 9016 ft | 319 kts | 208° |
| 2026-04-18 07:25 | 39.87553 | 3.20201 | 8665 ft | 314 kts | 209° |
| 2026-04-18 07:25 | 39.85636 | 3.18884 | 8313 ft | 310 kts | 209° |
| 2026-04-18 07:25 | 39.83741 | 3.17581 | 7969 ft | 306 kts | 208° |
| 2026-04-18 07:25 | 39.81875 | 3.16301 | 7624 ft | 301 kts | 208° |
| 2026-04-18 07:26 | 39.80033 | 3.15038 | 7278 ft | 297 kts | 209° |
| 2026-04-18 07:26 | 39.78222 | 3.13795 | 6976 ft | 291 kts | 208° |
| 2026-04-18 07:26 | 39.76464 | 3.12592 | 6702 ft | 280 kts | 208° |
| 2026-04-18 07:26 | 39.74771 | 3.11432 | 6384 ft | 270 kts | 208° |
| 2026-04-18 07:27 | 39.73137 | 3.10315 | 6060 ft | 261 kts | 208° |
| 2026-04-18 07:27 | 39.72091 | 3.09596 | 5843 ft | 255 kts | 210° |
| 2026-04-18 07:27 | 39.70716 | 3.08206 | 5516 ft | 248 kts | 230° |
| 2026-04-18 07:27 | 39.69738 | 3.06390 | 5194 ft | 245 kts | 240° |
| 2026-04-18 07:28 | 39.68859 | 3.04504 | 4878 ft | 243 kts | 240° |
| 2026-04-18 07:28 | 39.67987 | 3.02638 | 4615 ft | 241 kts | 240° |
| 2026-04-18 07:28 | 39.67122 | 3.00790 | 4312 ft | 237 kts | 240° |
| 2026-04-18 07:28 | 39.66276 | 2.98988 | 4004 ft | 231 kts | 240° |
| 2026-04-18 07:29 | 39.65449 | 2.97224 | 3719 ft | 227 kts | 240° |
| 2026-04-18 07:29 | 39.64638 | 2.95496 | 3406 ft | 220 kts | 240° |
| 2026-04-18 07:29 | 39.63858 | 2.93834 | 3119 ft | 212 kts | 240° |
| 2026-04-18 07:29 | 39.63103 | 2.92228 | 2841 ft | 205 kts | 240° |
| 2026-04-18 07:30 | 39.62373 | 2.90675 | 2574 ft | 197 kts | 240° |
| 2026-04-18 07:30 | 39.61680 | 2.89200 | 2338 ft | 187 kts | 238° |
| 2026-04-18 07:30 | 39.61018 | 2.87790 | 2071 ft | 178 kts | 238° |
| 2026-04-18 07:30 | 39.60393 | 2.86464 | 1851 ft | 169 kts | 238° |
| 2026-04-18 07:31 | 39.59784 | 2.85170 | 1623 ft | 167 kts | 239° |
| 2026-04-18 07:31 | 39.59209 | 2.83949 | 1420 ft | 152 kts | 239° |
| 2026-04-18 07:31 | 39.58673 | 2.82811 | 1221 ft | 145 kts | 239° |
| 2026-04-18 07:31 | 39.58152 | 2.81706 | 1028 ft | 142 kts | 239° |
| 2026-04-18 07:32 | 39.57638 | 2.80616 | 833 ft | 141 kts | 239° |
| 2026-04-18 07:32 | 39.57132 | 2.79542 | 661 ft | 139 kts | 238° |
| 2026-04-18 07:32 | 39.56629 | 2.78476 | 470 ft | 138 kts | 238° |
| 2026-04-18 07:32 | 39.56129 | 2.77418 | 291 ft | 137 kts | 238° |
| 2026-04-18 07:33 | 39.55633 | 2.76359 | 111 ft | 138 kts | 238° |
| 2026-04-18 07:33 | 39.55150 | 2.75336 | 30 ft | 120 kts | 238° |
| 2026-04-18 07:33 | 39.54785 | 2.74562 | 30 ft | 79 kts | 238° |
| 2026-04-18 07:33 | 39.54567 | 2.74101 | 30 ft | 48 kts | 238° |
| 2026-04-18 07:34 | 39.54439 | 2.73830 | 30 ft | 15 kts | 238° |
| 2026-04-18 07:34 | 39.54478 | 2.73732 | 30 ft | 14 kts | 330° |
| 2026-04-18 07:34 | 39.54563 | 2.73665 | 30 ft | 14 kts | 329° |
| 2026-04-18 07:34 | 39.54635 | 2.73624 | 30 ft | 7 kts | 4° |
| 2026-04-18 07:35 | 39.54667 | 2.73684 | 30 ft | 10 kts | 66° |
| 2026-04-18 07:35 | 39.54700 | 2.73756 | 30 ft | 9 kts | 57° |
| 2026-04-18 07:35 | 39.54730 | 2.73818 | 30 ft | 8 kts | 58° |
| 2026-04-18 07:35 | 39.54755 | 2.73872 | 30 ft | 7 kts | 58° |
| 2026-04-18 07:36 | 39.54789 | 2.73943 | 30 ft | 9 kts | 58° |
| 2026-04-18 07:36 | 39.54829 | 2.74000 | 30 ft | 8 kts | 22° |
| 2026-04-18 07:36 | 39.54886 | 2.73974 | 30 ft | 9 kts | 329° |
| 2026-04-18 07:36 | 39.54933 | 2.73936 | 30 ft | 7 kts | 328° |
| 2026-04-18 07:37 | 39.54976 | 2.73902 | 30 ft | 9 kts | 328° |
| 2026-04-18 07:37 | 39.55050 | 2.73843 | 30 ft | 14 kts | 328° |
| 2026-04-18 07:37 | 39.55138 | 2.73774 | 30 ft | 14 kts | 328° |
| 2026-04-18 07:37 | 39.55182 | 2.73701 | 30 ft | 8 kts | 258° |
| 2026-04-18 07:38 | 39.55158 | 2.73645 | 30 ft | 8 kts | 238° |
| 2026-04-18 07:38 | 39.55127 | 2.73579 | 30 ft | 8 kts | 237° |
| 2026-04-18 07:38 | 39.55101 | 2.73577 | 30 ft | 4 kts | 167° |
| 2026-04-18 07:38 | 39.55074 | 2.73588 | 30 ft | 2 kts | 163° |
| 2026-04-18 07:39 | 39.55072 | 2.73588 | 30 ft | 0 kts | 163° |
| 2026-04-18 07:39 | 39.55071 | 2.73589 | 30 ft | 0 kts | 163° |
| 2026-04-18 07:39 | 39.55071 | 2.73588 | 30 ft | 0 kts | 163° |